Ardmore Dauntless — V7JI3 — position and weather

sailwx.info

Track history (hours):
 
Tides and Currents Weather Stations Pressure Air Temp Water Temp Dewpoint Dewpoint Depression Visibility Wind Speed Wind Dir Waves Ship Positions

Ardmore Dauntless

Last reported at 2017-Oct-17 23:47 UTC. Time now 2017-Oct-22 10:14 UTC.
Position N 38°45' W 030°57'.

Length 184 m; draft 9.4 m.

Type: Tanker. MMSI: 538006053.

Date/timePositionNaut miles runAvg speedWind from/ knotsBaromVisibWave heightAir tempDewpointWater temp
2017-Oct-17 23:47N 38°45' W 030°57'611.7
2017-Oct-17 23:16N 38°47' W 030°50'2111.7
2017-Oct-17 21:30N 38°56' W 030°26'611.7
2017-Oct-17 20:59N 38°58' W 030°19'511.5
2017-Oct-17 20:30N 39°01' W 030°13'611.6
2017-Oct-17 20:00N 39°05' W 030°07'611.6
2017-Oct-17 19:29N 39°08' W 030°00'612.0
2017-Oct-17 19:01N 39°11' W 029°54'612.0
2017-Oct-17 18:30N 39°14' W 029°48'612.3
2017-Oct-17 18:00N 39°17' W 029°41'612.4
2017-Oct-17 17:30N 39°21' W 029°34'612.4
2017-Oct-17 16:59N 39°24' W 029°27'612.3
2017-Oct-17 16:30N 39°27' W 029°20'612.3
2017-Oct-17 16:00N 39°30' W 029°13'612.0
2017-Oct-17 15:30N 39°32' W 029°06'611.9
2017-Oct-17 15:00N 39°35' W 028°59'611.4
2017-Oct-17 14:30N 39°37' W 028°52'711.0
2017-Oct-17 13:54N 39°40' W 028°45'  
2017-Oct-13 09:21N 49°43' W 006°11'1312.0
2017-Oct-13 08:16N 49°44' W 005°51'312.0
2017-Oct-13 08:00N 49°44' W 005°46'911.3
2017-Oct-13 07:15N 49°44' W 005°33'711.5
2017-Oct-13 06:40N 49°44' W 005°23'212.9
2017-Oct-13 06:30N 49°44' W 005°19'713.0
2017-Oct-13 05:56N 49°44' W 005°08'613.0
2017-Oct-13 05:30N 49°45' W 004°60'813.1
2017-Oct-13 04:55N 49°47' W 004°48'613.3
2017-Oct-13 04:29N 49°48' W 004°39'613.2
2017-Oct-13 04:00N 49°49' W 004°29'713.0
2017-Oct-13 03:30N 49°50' W 004°20'612.8
2017-Oct-13 03:00N 49°51' W 004°10'712.6
2017-Oct-13 02:26N 49°53' W 003°59'512.3
2017-Oct-13 02:00N 49°53' W 003°51'612.2
2017-Oct-13 01:30N 49°54' W 003°41'612.2
2017-Oct-13 01:00N 49°55' W 003°32'612.1
2017-Oct-13 00:30N 49°56' W 003°23'612.1
2017-Oct-13 00:00N 49°57' W 003°14'612.0
2017-Oct-12 23:30N 49°58' W 003°04'612.0
2017-Oct-12 23:00N 49°59' W 002°55'612.3
2017-Oct-12 22:29N 50°01' W 002°46'612.6
2017-Oct-12 22:00N 50°02' W 002°36'1013.2
2017-Oct-12 21:15N 50°05' W 002°21'313.9
2017-Oct-12 21:01N 50°06' W 002°16'914.5
2017-Oct-12 20:23N 50°08' W 002°03'1215.4
2017-Oct-12 19:37N 50°11' W 001°45'5315.0
2017-Oct-12 16:06N 50°25' W 000°25'113.4
2017-Oct-12 16:00N 50°25' W 000°23'713.1
2017-Oct-12 15:30N 50°27' W 000°13'612.7
2017-Oct-12 15:00N 50°28' W 000°04'612.3
2017-Oct-12 14:30N 50°30' E 000°06'611.8
2017-Oct-12 14:00N 50°32' E 000°15'611.6
2017-Oct-12 13:29N 50°33' E 000°24'611.7
2017-Oct-12 13:00N 50°35' E 000°32'612.1
2017-Oct-12 12:30N 50°38' E 000°41'612.7
2017-Oct-12 12:00N 50°41' E 000°49'713.5
2017-Oct-12 11:30N 50°45' E 000°58'714.3
2017-Oct-12 11:00N 50°49' E 001°07'714.7
2017-Oct-12 10:30N 50°54' E 001°16'815.2
2017-Oct-12 10:00N 50°59' E 001°24'714.3
2017-Oct-12 09:30N 51°05' E 001°32'713.9
2017-Oct-12 09:00N 51°09' E 001°40'713.4
2017-Oct-12 08:30N 51°14' E 001°47'612.5
2017-Oct-12 08:00N 51°20' E 001°51'612.1
2017-Oct-12 07:30N 51°26' E 001°55'611.7
2017-Oct-12 07:00N 51°30' E 002°01'611.2
2017-Oct-12 06:30N 51°34' E 002°07'611.1
2017-Oct-12 06:00N 51°38' E 002°13'4811.1
2017-Oct-12 01:38N 52°03' E 003°20'1012.5
2017-Oct-12 00:51N 52°04' E 003°36'512.2
2017-Oct-12 00:29N 52°03' E 003°43'510.9
2017-Oct-12 00:00N 52°03' E 003°52'1 2.8
2017-Oct-11 23:30N 52°03' E 003°54'3 6.8
2017-Oct-11 23:00N 52°01' E 003°59'611.1
2017-Oct-11 22:30N 51°59' E 004°07'510.3
2017-Oct-11 22:00N 51°56' E 004°14'4 7.9
2017-Oct-11 21:30N 51°53' E 004°19'0 0.7
2017-Oct-11 21:00N 51°53' E 004°18'0 0.0
2017-Oct-11 20:30N 51°53' E 004°18'0 0.0
2017-Oct-11 20:00N 51°53' E 004°18'0 0.0
2017-Oct-11 19:27N 51°53' E 004°18'0 0.0
2017-Oct-11 18:57N 51°53' E 004°18'0 0.0
2017-Oct-11 18:30N 51°53' E 004°18'0 0.0
2017-Oct-11 18:00N 51°53' E 004°18'0 0.0
2017-Oct-11 17:30N 51°53' E 004°18'0 0.0
2017-Oct-11 16:57N 51°53' E 004°18'0 0.0
2017-Oct-11 00:00N 51°53' E 004°18'0 0.0
2017-Oct-10 23:27N 51°53' E 004°18'0 0.0
2017-Oct-10 23:00N 51°53' E 004°18'0 0.0
2017-Oct-10 22:30N 51°53' E 004°18'0 0.0
2017-Oct-10 22:00N 51°53' E 004°18'0 0.0
2017-Oct-10 21:30N 51°53' E 004°18'0 0.0
2017-Oct-10 21:00N 51°53' E 004°18'0 0.0
2017-Oct-10 20:30N 51°53' E 004°18'0 0.0
2017-Oct-10 20:00N 51°53' E 004°18'0 0.0
2017-Oct-10 19:30N 51°53' E 004°18'0 0.0
2017-Oct-10 19:00N 51°53' E 004°18'0 0.0
2017-Oct-10 18:27N 51°53' E 004°18'0 0.0
2017-Oct-10 18:00N 51°53' E 004°18'0 0.0
2017-Oct-10 17:30N 51°53' E 004°18'0 0.0
2017-Oct-10 16:57N 51°53' E 004°18'0 0.0
2017-Oct-10 16:27N 51°53' E 004°18'0 0.0
2017-Oct-10 16:00N 51°53' E 004°18'0 0.0
2017-Oct-10 15:27N 51°53' E 004°18'0 0.0
2017-Oct-10 14:57N 51°53' E 004°18'0 0.0
2017-Oct-10 13:57N 51°53' E 004°18'0 0.0
2017-Oct-10 13:30N 51°53' E 004°18'0 0.0
2017-Oct-10 13:00N 51°53' E 004°18'0 0.0
2017-Oct-10 12:24N 51°53' E 004°18'0 0.0
2017-Oct-10 11:57N 51°53' E 004°18'0 0.0
2017-Oct-10 11:24N 51°53' E 004°18'0 0.0
2017-Oct-10 10:54N 51°53' E 004°18'0 0.0
2017-Oct-10 10:21N 51°53' E 004°18'0 0.0
2017-Oct-10 09:57N 51°53' E 004°18'0 0.0
2017-Oct-10 09:27N 51°53' E 004°18'0 0.0
2017-Oct-10 08:57N 51°53' E 004°18'0 0.0
2017-Oct-10 08:27N 51°53' E 004°18'0 0.0
2017-Oct-10 08:00N 51°53' E 004°18'0 0.0
2017-Oct-10 07:30N 51°53' E 004°18'0 0.0
2017-Oct-10 07:00N 51°53' E 004°18'0 0.0
2017-Oct-10 06:30N 51°53' E 004°18'0 0.0
2017-Oct-10 05:57N 51°53' E 004°18'0 0.0
2017-Oct-10 05:24N 51°53' E 004°18'0 0.0
2017-Oct-10 04:54N 51°53' E 004°18'0 0.0
2017-Oct-10 04:27N 51°53' E 004°18'0 0.0
2017-Oct-10 03:57N 51°53' E 004°18'0 0.0
2017-Oct-10 03:30N 51°53' E 004°18'0 0.0
2017-Oct-10 03:00N 51°53' E 004°18'0 0.8
2017-Oct-10 02:30N 51°53' E 004°19'2 3.2
2017-Oct-10 02:00N 51°54' E 004°16'2 3.7
2017-Oct-10 01:31N 51°55' E 004°14'2 3.6
2017-Oct-10 01:00N 51°56' E 004°12'5 9.0
2017-Oct-10 00:30N 51°59' E 004°06'1 2.5
2017-Oct-10 00:00N 51°59' E 004°04'5 9.5
2017-Oct-09 23:30N 51°57' E 004°10'1 2.7
2017-Oct-09 22:59N 51°56' E 004°12'0 0.0
2017-Oct-09 22:29N 51°56' E 004°12'0 0.0
2017-Oct-09 21:59N 51°56' E 004°12'0 0.0
2017-Oct-09 21:29N 51°56' E 004°12'0 0.0
2017-Oct-09 21:00N 51°56' E 004°12'0 0.0
2017-Oct-09 20:29N 51°56' E 004°12'0 0.0
2017-Oct-09 19:59N 51°56' E 004°12'0 0.0
2017-Oct-09 19:26N 51°56' E 004°12'0 0.0
2017-Oct-09 18:56N 51°56' E 004°12'0 0.0
2017-Oct-09 18:30N 51°56' E 004°12'0 0.0
2017-Oct-09 17:59N 51°56' E 004°12'0 0.0
2017-Oct-09 17:30N 51°56' E 004°12'0 0.0
2017-Oct-09 16:56N 51°56' E 004°12'0 0.0
2017-Oct-09 16:29N 51°56' E 004°12'0 0.0
2017-Oct-09 15:59N 51°56' E 004°12'0 0.0
2017-Oct-09 15:23N 51°56' E 004°12'0 0.0
2017-Oct-09 14:59N 51°56' E 004°12'0 0.0
2017-Oct-09 14:30N 51°56' E 004°12'0 0.0
2017-Oct-09 13:59N 51°56' E 004°12'0 0.0
2017-Oct-09 13:29N 51°56' E 004°12'0 0.0
2017-Oct-09 12:59N 51°56' E 004°12'0 0.0
2017-Oct-09 12:29N 51°56' E 004°12'0 0.0
2017-Oct-09 11:56N 51°56' E 004°12'0 0.0
2017-Oct-09 11:26N 51°56' E 004°12'0 0.0
2017-Oct-09 10:56N 51°56' E 004°12'0 0.0
2017-Oct-09 10:23N 51°56' E 004°12'0 0.0
2017-Oct-09 09:59N 51°56' E 004°12'0 0.0
2017-Oct-09 09:29N 51°56' E 004°12'0 0.0
2017-Oct-09 08:59N 51°56' E 004°12'0 0.0
2017-Oct-09 08:29N 51°56' E 004°12'0 0.0
2017-Oct-09 07:59N 51°56' E 004°12'0 0.0
2017-Oct-09 07:29N 51°56' E 004°12'0 0.0
2017-Oct-09 06:59N 51°56' E 004°12'0 0.0
2017-Oct-09 06:26N 51°56' E 004°12'0 0.0
2017-Oct-09 05:56N 51°56' E 004°12'0 0.0
2017-Oct-09 05:29N 51°56' E 004°12'0 0.0
2017-Oct-09 04:59N 51°56' E 004°12'0 0.0
2017-Oct-09 04:26N 51°56' E 004°12'0 0.0
2017-Oct-09 03:59N 51°56' E 004°12'0 0.0
2017-Oct-09 03:29N 51°56' E 004°12'0 0.0
2017-Oct-09 02:59N 51°56' E 004°12'0 0.0
2017-Oct-09 02:29N 51°56' E 004°12'0 0.0
2017-Oct-09 01:59N 51°56' E 004°12'0 0.0
2017-Oct-09 01:26N 51°56' E 004°12'0 0.0
2017-Oct-09 00:56N 51°56' E 004°12'0 0.0
2017-Oct-09 00:29N 51°56' E 004°12'0 0.0
2017-Oct-08 23:59N 51°56' E 004°12'0 0.0
2017-Oct-08 23:29N 51°56' E 004°12'0 0.0
2017-Oct-08 22:50N 51°56' E 004°12'0 0.0
2017-Oct-08 22:29N 51°56' E 004°12'0 0.0
2017-Oct-08 21:59N 51°56' E 004°12'0 0.0
2017-Oct-08 21:26N 51°56' E 004°12'0 0.0
2017-Oct-08 20:59N 51°56' E 004°12'0 0.0
2017-Oct-08 20:29N 51°56' E 004°12'0 0.0
2017-Oct-08 19:53N 51°56' E 004°12'0 0.0
2017-Oct-08 19:29N 51°56' E 004°12'0 0.0
2017-Oct-08 18:59N 51°56' E 004°12'0 0.0
2017-Oct-08 18:29N 51°56' E 004°12'0 0.0
2017-Oct-08 17:59N 51°56' E 004°12'0 0.0
2017-Oct-08 17:29N 51°56' E 004°12'0 0.0
2017-Oct-08 16:59N 51°56' E 004°12'0 0.0
2017-Oct-08 16:29N 51°56' E 004°12'0 0.0
2017-Oct-08 15:59N 51°56' E 004°12'0 0.0
2017-Oct-08 15:29N 51°56' E 004°12'0 0.0
2017-Oct-08 14:59N 51°56' E 004°12'0 0.0
2017-Oct-08 14:29N 51°56' E 004°12'0 0.0
2017-Oct-08 13:59N 51°56' E 004°12'0 0.0
2017-Oct-08 13:29N 51°56' E 004°12'0 0.0
2017-Oct-08 12:59N 51°56' E 004°12'0 0.0
2017-Oct-08 12:26N 51°56' E 004°12'0 0.0
2017-Oct-08 11:59N 51°56' E 004°12'0 0.0
2017-Oct-08 11:29N 51°56' E 004°12'0 0.0
2017-Oct-08 10:59N 51°56' E 004°12'0 0.0
2017-Oct-08 10:29N 51°56' E 004°12'0 0.0
2017-Oct-08 09:59N 51°56' E 004°12'0 0.0
2017-Oct-08 09:26N 51°56' E 004°12'0 0.0
2017-Oct-08 08:59N 51°56' E 004°12'0 0.0
2017-Oct-08 08:26N 51°56' E 004°12'0 0.0
2017-Oct-08 07:59N 51°56' E 004°12'0 0.0
2017-Oct-08 07:29N 51°56' E 004°12'0 0.0
2017-Oct-08 06:59N 51°56' E 004°12'0 0.0
2017-Oct-08 06:29N 51°56' E 004°12'0 0.0
2017-Oct-08 05:59N 51°56' E 004°12'0 0.0
2017-Oct-08 05:29N 51°56' E 004°12'0 0.0
2017-Oct-08 04:59N 51°56' E 004°12'0 0.0
2017-Oct-08 04:29N 51°56' E 004°12'0 0.0
2017-Oct-08 03:59N 51°56' E 004°12'0 0.0
2017-Oct-08 03:26N 51°56' E 004°12'0 0.0
2017-Oct-08 02:56N 51°56' E 004°12'0 0.0
2017-Oct-08 02:29N 51°56' E 004°12'0 0.0
2017-Oct-08 01:47N 51°56' E 004°12'0 0.0
2017-Oct-08 01:29N 51°56' E 004°12'0 0.0
2017-Oct-08 00:59N 51°56' E 004°12'0 0.0
2017-Oct-08 00:26N 51°56' E 004°12'0 0.0
2017-Oct-07 23:59N 51°56' E 004°12'  
Track history (hours):
 
Tides and Currents Weather Stations Pressure Air Temp Water Temp Dewpoint Dewpoint Depression Visibility Wind Speed Wind Dir Waves Ship Positions

Ardmore Dauntless

Last reported at 2017-Oct-17 23:47 UTC. Time now 2017-Oct-22 10:14 UTC.
Position N 38°45' W 030°57'.

Length 184 m; draft 9.4 m.

Type: Tanker. MMSI: 538006053.

Date/timePositionNaut miles runAvg speedWind from/ knotsBaromVisibWave heightAir tempDewpointWater temp
2017-Oct-17 23:47N 38°45' W 030°57'611.7
2017-Oct-17 23:16N 38°47' W 030°50'2111.7
2017-Oct-17 21:30N 38°56' W 030°26'611.7
2017-Oct-17 20:59N 38°58' W 030°19'511.5
2017-Oct-17 20:30N 39°01' W 030°13'611.6
2017-Oct-17 20:00N 39°05' W 030°07'611.6
2017-Oct-17 19:29N 39°08' W 030°00'612.0
2017-Oct-17 19:01N 39°11' W 029°54'612.0
2017-Oct-17 18:30N 39°14' W 029°48'612.3
2017-Oct-17 18:00N 39°17' W 029°41'612.4
2017-Oct-17 17:30N 39°21' W 029°34'612.4
2017-Oct-17 16:59N 39°24' W 029°27'612.3
2017-Oct-17 16:30N 39°27' W 029°20'612.3
2017-Oct-17 16:00N 39°30' W 029°13'612.0
2017-Oct-17 15:30N 39°32' W 029°06'611.9
2017-Oct-17 15:00N 39°35' W 028°59'611.4
2017-Oct-17 14:30N 39°37' W 028°52'711.0
2017-Oct-17 13:54N 39°40' W 028°45'  
2017-Oct-13 09:21N 49°43' W 006°11'1312.0
2017-Oct-13 08:16N 49°44' W 005°51'312.0
2017-Oct-13 08:00N 49°44' W 005°46'911.3
2017-Oct-13 07:15N 49°44' W 005°33'711.5
2017-Oct-13 06:40N 49°44' W 005°23'212.9
2017-Oct-13 06:30N 49°44' W 005°19'713.0
2017-Oct-13 05:56N 49°44' W 005°08'613.0
2017-Oct-13 05:30N 49°45' W 004°60'813.1
2017-Oct-13 04:55N 49°47' W 004°48'613.3
2017-Oct-13 04:29N 49°48' W 004°39'613.2
2017-Oct-13 04:00N 49°49' W 004°29'713.0
2017-Oct-13 03:30N 49°50' W 004°20'612.8
2017-Oct-13 03:00N 49°51' W 004°10'712.6
2017-Oct-13 02:26N 49°53' W 003°59'512.3
2017-Oct-13 02:00N 49°53' W 003°51'612.2
2017-Oct-13 01:30N 49°54' W 003°41'612.2
2017-Oct-13 01:00N 49°55' W 003°32'612.1
2017-Oct-13 00:30N 49°56' W 003°23'612.1
2017-Oct-13 00:00N 49°57' W 003°14'612.0
2017-Oct-12 23:30N 49°58' W 003°04'612.0
2017-Oct-12 23:00N 49°59' W 002°55'612.3
2017-Oct-12 22:29N 50°01' W 002°46'612.6
2017-Oct-12 22:00N 50°02' W 002°36'1013.2
2017-Oct-12 21:15N 50°05' W 002°21'313.9
2017-Oct-12 21:01N 50°06' W 002°16'914.5
2017-Oct-12 20:23N 50°08' W 002°03'1215.4
2017-Oct-12 19:37N 50°11' W 001°45'5315.0
2017-Oct-12 16:06N 50°25' W 000°25'113.4
2017-Oct-12 16:00N 50°25' W 000°23'713.1
2017-Oct-12 15:30N 50°27' W 000°13'612.7
2017-Oct-12 15:00N 50°28' W 000°04'612.3
2017-Oct-12 14:30N 50°30' E 000°06'611.8
2017-Oct-12 14:00N 50°32' E 000°15'611.6
2017-Oct-12 13:29N 50°33' E 000°24'611.7
2017-Oct-12 13:00N 50°35' E 000°32'612.1
2017-Oct-12 12:30N 50°38' E 000°41'612.7
2017-Oct-12 12:00N 50°41' E 000°49'713.5
2017-Oct-12 11:30N 50°45' E 000°58'714.3
2017-Oct-12 11:00N 50°49' E 001°07'714.7
2017-Oct-12 10:30N 50°54' E 001°16'815.2
2017-Oct-12 10:00N 50°59' E 001°24'714.3
2017-Oct-12 09:30N 51°05' E 001°32'713.9
2017-Oct-12 09:00N 51°09' E 001°40'713.4
2017-Oct-12 08:30N 51°14' E 001°47'612.5
2017-Oct-12 08:00N 51°20' E 001°51'612.1
2017-Oct-12 07:30N 51°26' E 001°55'611.7
2017-Oct-12 07:00N 51°30' E 002°01'611.2
2017-Oct-12 06:30N 51°34' E 002°07'611.1
2017-Oct-12 06:00N 51°38' E 002°13'4811.1
2017-Oct-12 01:38N 52°03' E 003°20'1012.5
2017-Oct-12 00:51N 52°04' E 003°36'512.2
2017-Oct-12 00:29N 52°03' E 003°43'510.9
2017-Oct-12 00:00N 52°03' E 003°52'1 2.8
2017-Oct-11 23:30N 52°03' E 003°54'3 6.8
2017-Oct-11 23:00N 52°01' E 003°59'611.1
2017-Oct-11 22:30N 51°59' E 004°07'510.3
2017-Oct-11 22:00N 51°56' E 004°14'4 7.9
2017-Oct-11 21:30N 51°53' E 004°19'0 0.7
2017-Oct-11 21:00N 51°53' E 004°18'0 0.0
2017-Oct-11 20:30N 51°53' E 004°18'0 0.0
2017-Oct-11 20:00N 51°53' E 004°18'0 0.0
2017-Oct-11 19:27N 51°53' E 004°18'0 0.0
2017-Oct-11 18:57N 51°53' E 004°18'0 0.0
2017-Oct-11 18:30N 51°53' E 004°18'0 0.0
2017-Oct-11 18:00N 51°53' E 004°18'0 0.0
2017-Oct-11 17:30N 51°53' E 004°18'0 0.0
2017-Oct-11 16:57N 51°53' E 004°18'0 0.0
2017-Oct-11 00:00N 51°53' E 004°18'0 0.0
2017-Oct-10 23:27N 51°53' E 004°18'0 0.0
2017-Oct-10 23:00N 51°53' E 004°18'0 0.0
2017-Oct-10 22:30N 51°53' E 004°18'0 0.0
2017-Oct-10 22:00N 51°53' E 004°18'0 0.0
2017-Oct-10 21:30N 51°53' E 004°18'0 0.0
2017-Oct-10 21:00N 51°53' E 004°18'0 0.0
2017-Oct-10 20:30N 51°53' E 004°18'0 0.0
2017-Oct-10 20:00N 51°53' E 004°18'0 0.0
2017-Oct-10 19:30N 51°53' E 004°18'0 0.0
2017-Oct-10 19:00N 51°53' E 004°18'0 0.0
2017-Oct-10 18:27N 51°53' E 004°18'0 0.0
2017-Oct-10 18:00N 51°53' E 004°18'0 0.0
2017-Oct-10 17:30N 51°53' E 004°18'0 0.0
2017-Oct-10 16:57N 51°53' E 004°18'0 0.0
2017-Oct-10 16:27N 51°53' E 004°18'0 0.0
2017-Oct-10 16:00N 51°53' E 004°18'0 0.0
2017-Oct-10 15:27N 51°53' E 004°18'0 0.0
2017-Oct-10 14:57N 51°53' E 004°18'0 0.0
2017-Oct-10 13:57N 51°53' E 004°18'0 0.0
2017-Oct-10 13:30N 51°53' E 004°18'0 0.0
2017-Oct-10 13:00N 51°53' E 004°18'0 0.0
2017-Oct-10 12:24N 51°53' E 004°18'0 0.0
2017-Oct-10 11:57N 51°53' E 004°18'0 0.0
2017-Oct-10 11:24N 51°53' E 004°18'0 0.0
2017-Oct-10 10:54N 51°53' E 004°18'0 0.0
2017-Oct-10 10:21N 51°53' E 004°18'0 0.0
2017-Oct-10 09:57N 51°53' E 004°18'0 0.0
2017-Oct-10 09:27N 51°53' E 004°18'0 0.0
2017-Oct-10 08:57N 51°53' E 004°18'0 0.0
2017-Oct-10 08:27N 51°53' E 004°18'0 0.0
2017-Oct-10 08:00N 51°53' E 004°18'0 0.0
2017-Oct-10 07:30N 51°53' E 004°18'0 0.0
2017-Oct-10 07:00N 51°53' E 004°18'0 0.0
2017-Oct-10 06:30N 51°53' E 004°18'0 0.0
2017-Oct-10 05:57N 51°53' E 004°18'0 0.0
2017-Oct-10 05:24N 51°53' E 004°18'0 0.0
2017-Oct-10 04:54N 51°53' E 004°18'0 0.0
2017-Oct-10 04:27N 51°53' E 004°18'0 0.0
2017-Oct-10 03:57N 51°53' E 004°18'0 0.0
2017-Oct-10 03:30N 51°53' E 004°18'0 0.0
2017-Oct-10 03:00N 51°53' E 004°18'0 0.8
2017-Oct-10 02:30N 51°53' E 004°19'2 3.2
2017-Oct-10 02:00N 51°54' E 004°16'2 3.7
2017-Oct-10 01:31N 51°55' E 004°14'2 3.6
2017-Oct-10 01:00N 51°56' E 004°12'5 9.0
2017-Oct-10 00:30N 51°59' E 004°06'1 2.5
2017-Oct-10 00:00N 51°59' E 004°04'5 9.5
2017-Oct-09 23:30N 51°57' E 004°10'1 2.7
2017-Oct-09 22:59N 51°56' E 004°12'0 0.0
2017-Oct-09 22:29N 51°56' E 004°12'0 0.0
2017-Oct-09 21:59N 51°56' E 004°12'0 0.0
2017-Oct-09 21:29N 51°56' E 004°12'0 0.0
2017-Oct-09 21:00N 51°56' E 004°12'0 0.0
2017-Oct-09 20:29N 51°56' E 004°12'0 0.0
2017-Oct-09 19:59N 51°56' E 004°12'0 0.0
2017-Oct-09 19:26N 51°56' E 004°12'0 0.0
2017-Oct-09 18:56N 51°56' E 004°12'0 0.0
2017-Oct-09 18:30N 51°56' E 004°12'0 0.0
2017-Oct-09 17:59N 51°56' E 004°12'0 0.0
2017-Oct-09 17:30N 51°56' E 004°12'0 0.0
2017-Oct-09 16:56N 51°56' E 004°12'0 0.0
2017-Oct-09 16:29N 51°56' E 004°12'0 0.0
2017-Oct-09 15:59N 51°56' E 004°12'0 0.0
2017-Oct-09 15:23N 51°56' E 004°12'0 0.0
2017-Oct-09 14:59N 51°56' E 004°12'0 0.0
2017-Oct-09 14:30N 51°56' E 004°12'0 0.0
2017-Oct-09 13:59N 51°56' E 004°12'0 0.0
2017-Oct-09 13:29N 51°56' E 004°12'0 0.0
2017-Oct-09 12:59N 51°56' E 004°12'0 0.0
2017-Oct-09 12:29N 51°56' E 004°12'0 0.0
2017-Oct-09 11:56N 51°56' E 004°12'0 0.0
2017-Oct-09 11:26N 51°56' E 004°12'0 0.0
2017-Oct-09 10:56N 51°56' E 004°12'0 0.0
2017-Oct-09 10:23N 51°56' E 004°12'0 0.0
2017-Oct-09 09:59N 51°56' E 004°12'0 0.0
2017-Oct-09 09:29N 51°56' E 004°12'0 0.0
2017-Oct-09 08:59N 51°56' E 004°12'0 0.0
2017-Oct-09 08:29N 51°56' E 004°12'0 0.0
2017-Oct-09 07:59N 51°56' E 004°12'0 0.0
2017-Oct-09 07:29N 51°56' E 004°12'0 0.0
2017-Oct-09 06:59N 51°56' E 004°12'0 0.0
2017-Oct-09 06:26N 51°56' E 004°12'0 0.0
2017-Oct-09 05:56N 51°56' E 004°12'0 0.0
2017-Oct-09 05:29N 51°56' E 004°12'0 0.0
2017-Oct-09 04:59N 51°56' E 004°12'0 0.0
2017-Oct-09 04:26N 51°56' E 004°12'0 0.0
2017-Oct-09 03:59N 51°56' E 004°12'0 0.0
2017-Oct-09 03:29N 51°56' E 004°12'0 0.0
2017-Oct-09 02:59N 51°56' E 004°12'0 0.0
2017-Oct-09 02:29N 51°56' E 004°12'0 0.0
2017-Oct-09 01:59N 51°56' E 004°12'0 0.0
2017-Oct-09 01:26N 51°56' E 004°12'0 0.0
2017-Oct-09 00:56N 51°56' E 004°12'0 0.0
2017-Oct-09 00:29N 51°56' E 004°12'0 0.0
2017-Oct-08 23:59N 51°56' E 004°12'0 0.0
2017-Oct-08 23:29N 51°56' E 004°12'0 0.0
2017-Oct-08 22:50N 51°56' E 004°12'0 0.0
2017-Oct-08 22:29N 51°56' E 004°12'0 0.0
2017-Oct-08 21:59N 51°56' E 004°12'0 0.0
2017-Oct-08 21:26N 51°56' E 004°12'0 0.0
2017-Oct-08 20:59N 51°56' E 004°12'0 0.0
2017-Oct-08 20:29N 51°56' E 004°12'0 0.0
2017-Oct-08 19:53N 51°56' E 004°12'0 0.0
2017-Oct-08 19:29N 51°56' E 004°12'0 0.0
2017-Oct-08 18:59N 51°56' E 004°12'0 0.0
2017-Oct-08 18:29N 51°56' E 004°12'0 0.0
2017-Oct-08 17:59N 51°56' E 004°12'0 0.0
2017-Oct-08 17:29N 51°56' E 004°12'0 0.0
2017-Oct-08 16:59N 51°56' E 004°12'0 0.0
2017-Oct-08 16:29N 51°56' E 004°12'0 0.0
2017-Oct-08 15:59N 51°56' E 004°12'0 0.0
2017-Oct-08 15:29N 51°56' E 004°12'0 0.0
2017-Oct-08 14:59N 51°56' E 004°12'0 0.0
2017-Oct-08 14:29N 51°56' E 004°12'0 0.0
2017-Oct-08 13:59N 51°56' E 004°12'0 0.0
2017-Oct-08 13:29N 51°56' E 004°12'0 0.0
2017-Oct-08 12:59N 51°56' E 004°12'0 0.0
2017-Oct-08 12:26N 51°56' E 004°12'0 0.0
2017-Oct-08 11:59N 51°56' E 004°12'0 0.0
2017-Oct-08 11:29N 51°56' E 004°12'0 0.0
2017-Oct-08 10:59N 51°56' E 004°12'0 0.0
2017-Oct-08 10:29N 51°56' E 004°12'0 0.0
2017-Oct-08 09:59N 51°56' E 004°12'0 0.0
2017-Oct-08 09:26N 51°56' E 004°12'0 0.0
2017-Oct-08 08:59N 51°56' E 004°12'0 0.0
2017-Oct-08 08:26N 51°56' E 004°12'0 0.0
2017-Oct-08 07:59N 51°56' E 004°12'0 0.0
2017-Oct-08 07:29N 51°56' E 004°12'0 0.0
2017-Oct-08 06:59N 51°56' E 004°12'0 0.0
2017-Oct-08 06:29N 51°56' E 004°12'0 0.0
2017-Oct-08 05:59N 51°56' E 004°12'0 0.0
2017-Oct-08 05:29N 51°56' E 004°12'0 0.0
2017-Oct-08 04:59N 51°56' E 004°12'0 0.0
2017-Oct-08 04:29N 51°56' E 004°12'0 0.0
2017-Oct-08 03:59N 51°56' E 004°12'0 0.0
2017-Oct-08 03:26N 51°56' E 004°12'0 0.0
2017-Oct-08 02:56N 51°56' E 004°12'0 0.0
2017-Oct-08 02:29N 51°56' E 004°12'0 0.0
2017-Oct-08 01:47N 51°56' E 004°12'0 0.0
2017-Oct-08 01:29N 51°56' E 004°12'0 0.0
2017-Oct-08 00:59N 51°56' E 004°12'0 0.0
2017-Oct-08 00:26N 51°56' E 004°12'0 0.0
2017-Oct-07 23:59N 51°56' E 004°12'  

Dump ship's entire track history